Galesburg, IL (61401)

12:18 PM CDT on July 27, 2016 (GMT -0500)
N9VPV | | Change Station

Elev 777 ft 40.95 °N, 90.39 °W | Updated 5 seconds ago

Scattered Clouds
Scattered Clouds
85.0 °F
Feels Like 90 °F
N
4.0
Wind Variable Wind from SE
Gusts 5.0 mph

Today
High -- | Low -- °F
--% Chance of Precip.
Yesterday
High -- | Low -- °F
Precip. -- in
Pressure 30.03 in
Visibility 10.0 miles
Clouds Scattered Clouds 3000 ft
Scattered Clouds 4100 ft
Heat Index 90 °F
Dew Point 70 °F
Humidity 61%
Rainfall 0.00 in
Snow Depth Not available.
5:53 AM 8:22 PM
Last Quarter, 41% visible
METAR KGBG 271655Z AUTO 15005KT 10SM SCT030 SCT041 28/21 A3003 RMK AO2 T02840205
Pressure 30.03 in
Visibility 10.0 miles
Clouds Scattered Clouds 3000 ft
Scattered Clouds 4100 ft
Heat Index 90 °F
Dew Point 70 °F
Humidity 61%
Rainfall 0.00 in
Snow Depth Not available.
5:53 AM 8:22 PM
Last Quarter, 41% visible
METAR KGBG 271655Z AUTO 15005KT 10SM SCT030 SCT041 28/21 A3003 RMK AO2 T02840205

10-Day Weather Forecast

Almanac

Astronomy

Jul. 27, 2016 Rise Set
Actual Time
Civil Twilight
Nautical Twilight
Astronomical Twilight
Moon
Length of Visible Light
Length of Day
Tomorrow will be .
, % of the Moon is Illuminated

Today's Extremes

State Highs State Lows

Community

WunderPhotos

Upload Photos

1,927,884 photos uploaded!

WunderBlog® & News

Nearby

Air Quality

  Air Quality AQ Index Pollutant
Not available.

Snow Depth

Station Depth Elevation

Earthquake Activity

City Distance Mag. Time & Date
Minimum magnitude displayed is 2.5.

Coastal Water Temperatures

Place Temperature

Stations

Nearby Weather Stations

Station Location Temp. Windchill Dew Point Humidity Wind Precip. Elev Updated Type
                   

Watches & Warnings

There are currently no watches in effect.